Time;durP1;ratioP1;P1;durP2;ratioP2;P2;SDS_P1;SDS_P2;PMS_P1;PMS_P2;Temp;Humidity;BMP_temperature;BMP_pressure;BME280_temperature;BME280_humidity;BME280_pressure;Samples;Min_cycle;Max_cycle;Signal;HPM_P1;HPM_P2
2022/04/26 03:37:34;;;;;;;40.08;20.62;;;;;;;;;;4303155;81;28523;-83
2022/04/26 03:43:35;;;;;;;39.80;21.20;;;;;;;;;;4304090;81;28501;-83
2022/04/26 03:49:37;;;;;;;38.70;19.60;;;;;;;;;;4297754;81;28500;-83
2022/04/26 03:55:38;;;;;;;36.38;19.30;;;;;;;;;;4300922;81;28555;-81
2022/04/26 04:01:40;;;;;;;38.45;18.82;;;;;;;;;;4294833;81;28508;-82
2022/04/26 04:07:41;;;;;;;35.68;19.12;;;;;;;;;;4290313;81;28524;-81
2022/04/26 04:13:42;;;;;;;35.38;19.25;;;;;;;;;;4229217;83;28529;-84
2022/04/26 04:19:42;;;;;;;35.68;19.87;;;;;;;;;;4230952;83;28528;-81
2022/04/26 04:25:43;;;;;;;33.55;17.52;;;;;;;;;;4231349;84;28466;-88
2022/04/26 04:31:45;;;;;;;31.60;16.97;;;;;;;;;;4250558;83;28520;-87
2022/04/26 04:37:47;;;;;;;31.60;15.60;;;;;;;;;;4240032;83;28510;-86
2022/04/26 04:43:48;;;;;;;32.42;17.52;;;;;;;;;;4240404;84;28579;-87
2022/04/26 04:49:49;;;;;;;36.68;18.95;;;;;;;;;;4308594;81;28569;-84
2022/04/26 04:55:51;;;;;;;40.48;20.05;;;;;;;;;;4222337;83;28524;-86
2022/04/26 05:01:52;;;;;;;29.90;17.02;;;;;;;;;;4262612;83;28518;-85
2022/04/26 05:07:53;;;;;;;31.82;16.77;;;;;;;;;;4247534;82;28563;-85
2022/04/26 05:13:55;;;;;;;29.27;16.00;;;;;;;;;;4291845;82;28500;-82
2022/04/26 05:19:56;;;;;;;31.82;17.00;;;;;;;;;;4281706;82;28529;-83
2022/04/26 05:25:57;;;;;;;28.60;16.07;;;;;;;;;;4272786;82;28555;-85
2022/04/26 05:31:58;;;;;;;32.95;16.25;;;;;;;;;;4277902;82;28641;-82
2022/04/26 05:37:59;;;;;;;25.43;14.28;;;;;;;;;;4283314;82;28492;-84
2022/04/26 05:44:00;;;;;;;28.50;15.10;;;;;;;;;;4302803;82;28519;-88
2022/04/26 05:50:01;;;;;;;29.10;15.72;;;;;;;;;;4276772;82;28525;-87
2022/04/26 05:56:04;;;;;;;32.28;18.20;;;;;;;;;;4303536;82;28536;-85
2022/04/26 06:02:06;;;;;;;39.05;21.75;;;;;;;;;;4230008;84;28468;-86
2022/04/26 06:08:08;;;;;;;36.93;19.48;;;;;;;;;;4301069;81;28496;-86
2022/04/26 06:14:09;;;;;;;37.50;19.48;;;;;;;;;;4298626;81;28488;-87
2022/04/26 06:20:12;;;;;;;37.95;21.10;;;;;;;;;;4277249;82;28528;-87
2022/04/26 06:26:13;;;;;;;42.15;22.05;;;;;;;;;;4234575;83;28560;-86
2022/04/26 06:32:14;;;;;;;42.03;22.73;;;;;;;;;;4232453;84;28477;-87
2022/04/26 06:38:18;;;;;;;40.17;21.52;;;;;;;;;;4216448;83;28447;-86
2022/04/26 06:44:21;;;;;;;40.30;22.05;;;;;;;;;;4238458;83;28516;-88
2022/04/26 06:50:23;;;;;;;36.98;21.27;;;;;;;;;;4269852;83;28522;-87
2022/04/26 06:56:24;;;;;;;41.08;23.70;;;;;;;;;;4307733;81;28531;-87
2022/04/26 07:02:25;;;;;;;48.10;24.32;;;;;;;;;;4232195;84;28510;-86
2022/04/26 07:08:26;;;;;;;46.28;24.77;;;;;;;;;;4230043;83;28558;-86
2022/04/26 07:14:29;;;;;;;42.95;23.57;;;;;;;;;;4226631;83;28583;-86
2022/04/26 07:20:30;;;;;;;40.88;21.68;;;;;;;;;;4245189;84;28505;-87
2022/04/26 07:26:31;;;;;;;39.50;21.73;;;;;;;;;;4240033;83;28481;-87
2022/04/26 07:38:51;;;;;;;39.53;22.75;;;;;;;;;;4245383;82;28520;-87
2022/04/26 07:44:53;;;;;;;39.15;21.82;;;;;;;;;;4245169;82;28537;-86
2022/04/26 07:50:53;;;;;;;35.92;21.75;;;;;;;;;;4241164;83;28546;-86
2022/04/26 07:56:55;;;;;;;35.75;20.57;;;;;;;;;;4218192;84;28496;-87
2022/04/26 08:02:56;;;;;;;34.65;18.87;;;;;;;;;;4196237;83;28510;-87
2022/04/26 08:08:58;;;;;;;33.78;19.75;;;;;;;;;;4212337;83;28538;-86
2022/04/26 08:14:59;;;;;;;29.82;18.15;;;;;;;;;;4217270;84;28530;-86
2022/04/26 08:21:00;;;;;;;32.23;18.50;;;;;;;;;;4215298;83;28483;-87
2022/04/26 08:33:22;;;;;;;27.87;16.60;;;;;;;;;;4219095;83;28518;-86
2022/04/26 08:39:23;;;;;;;28.40;17.25;;;;;;;;;;4217939;84;28531;-86
2022/04/26 08:45:24;;;;;;;27.50;17.52;;;;;;;;;;4221293;84;28456;-86
2022/04/26 08:51:25;;;;;;;31.50;16.77;;;;;;;;;;4203909;83;28506;-86
2022/04/26 08:57:26;;;;;;;23.05;14.78;;;;;;;;;;4215118;83;28503;-84
2022/04/26 09:03:31;;;;;;;20.17;13.43;;;;;;;;;;4218605;84;28550;-85
2022/04/26 09:09:33;;;;;;;21.62;13.60;;;;;;;;;;4218694;83;28573;-86
2022/04/26 09:15:36;;;;;;;24.35;14.78;;;;;;;;;;4215839;84;28510;-86
2022/04/26 09:21:39;;;;;;;22.52;14.40;;;;;;;;;;4218103;84;28519;-86
2022/04/26 09:27:41;;;;;;;23.70;14.83;;;;;;;;;;4214124;83;28534;-86
2022/04/26 09:33:47;;;;;;;22.55;14.98;;;;;;;;;;4220609;84;28507;-86
2022/04/26 09:40:02;;;;;;;24.40;15.45;;;;;;;;;;4216064;84;28483;-87
2022/04/26 09:46:04;;;;;;;20.62;14.73;;;;;;;;;;4221011;83;28496;-85
2022/04/26 09:52:08;;;;;;;22.87;15.55;;;;;;;;;;4209666;83;28526;-86
2022/04/26 09:58:08;;;;;;;24.18;15.30;;;;;;;;;;4208810;84;28495;-85
2022/04/26 10:04:11;;;;;;;24.95;15.80;;;;;;;;;;4219174;83;28464;-86
2022/04/26 10:10:13;;;;;;;25.48;15.30;;;;;;;;;;4215154;83;28550;-85
2022/04/26 10:16:16;;;;;;;23.22;15.98;;;;;;;;;;4219669;84;28454;-86
2022/04/26 10:22:19;;;;;;;24.18;14.95;;;;;;;;;;4216546;84;28546;-86
2022/04/26 10:28:23;;;;;;;25.75;15.53;;;;;;;;;;4199905;83;28881;-86
2022/04/26 10:34:31;;;;;;;23.83;14.40;;;;;;;;;;4215127;84;28517;-85
2022/04/26 10:40:34;;;;;;;24.10;15.28;;;;;;;;;;4220608;84;28535;-85
2022/04/26 10:46:35;;;;;;;29.27;15.95;;;;;;;;;;4217758;84;28518;-86
2022/04/26 10:52:38;;;;;;;25.25;15.65;;;;;;;;;;4226362;83;28483;-86
2022/04/26 10:58:41;;;;;;;26.02;15.35;;;;;;;;;;4236915;84;28516;-86
2022/04/26 11:04:42;;;;;;;24.67;14.55;;;;;;;;;;4237450;84;28525;-86
2022/04/26 11:11:07;;;;;;;21.62;13.53;;;;;;;;;;4242686;84;28584;-75
2022/04/26 11:17:05;;;;;;;21.12;13.35;;;;;;;;;;4216112;82;28487;-86
2022/04/26 11:28:00;;;;;;;21.50;13.88;;;;;;;;;;4237739;84;28506;-76
2022/04/26 11:29:19;;;;;;;18.37;11.97;;;;;;;;;;4240823;82;28558;-81
2022/04/26 11:35:20;;;;;;;18.32;11.08;;;;;;;;;;4239869;84;28506;-81
2022/04/26 11:41:21;;;;;;;18.75;11.70;;;;;;;;;;4229043;84;28502;-86
2022/04/26 11:47:39;;;;;;;16.05;9.85;;;;;;;;;;4241322;83;28569;-87
2022/04/26 11:53:40;;;;;;;17.25;10.15;;;;;;;;;;4245937;82;28491;-85
2022/04/26 11:59:41;;;;;;;16.97;10.65;;;;;;;;;;4245237;83;28482;-86
2022/04/26 12:05:42;;;;;;;19.27;11.33;;;;;;;;;;4245383;83;28534;-86
2022/04/26 12:11:45;;;;;;;18.65;12.10;;;;;;;;;;4220073;82;28514;-87
2022/04/26 12:17:48;;;;;;;18.65;11.33;;;;;;;;;;4238572;82;28506;-86
2022/04/26 12:23:51;;;;;;;17.07;10.23;;;;;;;;;;4242400;83;28530;-86
2022/04/26 12:29:52;;;;;;;17.05;10.50;;;;;;;;;;4231761;82;28537;-75
2022/04/26 12:35:57;;;;;;;18.05;11.48;;;;;;;;;;4239019;82;28490;-75
2022/04/26 12:41:59;;;;;;;16.97;10.58;;;;;;;;;;4230490;83;28529;-75
2022/04/26 12:54:24;;;;;;;20.50;12.68;;;;;;;;;;4238871;82;28534;-75
2022/04/26 13:00:26;;;;;;;21.73;13.22;;;;;;;;;;4238958;82;28538;-75
2022/04/26 13:06:27;;;;;;;25.72;13.30;;;;;;;;;;4232585;83;28534;-75
2022/04/26 13:12:28;;;;;;;20.68;13.43;;;;;;;;;;4238915;82;28471;-87
2022/04/26 13:18:29;;;;;;;24.75;14.47;;;;;;;;;;4210555;84;28518;-81
2022/04/26 13:24:30;;;;;;;23.80;14.63;;;;;;;;;;4239539;82;28518;-81
2022/04/26 13:30:31;;;;;;;23.55;13.70;;;;;;;;;;4237525;82;28514;-81
2022/04/26 13:36:34;;;;;;;22.90;13.18;;;;;;;;;;4239588;83;28538;-79
2022/04/26 13:42:36;;;;;;;23.57;14.25;;;;;;;;;;4238660;82;28538;-80
2022/04/26 13:48:37;;;;;;;21.95;13.72;;;;;;;;;;4237343;83;28490;-79
2022/04/26 13:54:38;;;;;;;21.65;14.00;;;;;;;;;;4228844;83;28538;-78
2022/04/26 14:00:39;;;;;;;25.75;15.03;;;;;;;;;;4209366;83;28518;-80
2022/04/26 14:06:40;;;;;;;24.63;13.95;;;;;;;;;;4214913;83;28558;-81
2022/04/26 14:12:41;;;;;;;22.55;14.20;;;;;;;;;;4214141;83;28542;-80
2022/04/26 14:25:03;;;;;;;19.75;12.35;;;;;;;;;;4204992;83;28491;-80
2022/04/26 14:31:04;;;;;;;19.75;11.95;;;;;;;;;;4212343;83;28600;-81
2022/04/26 14:37:05;;;;;;;15.98;10.30;;;;;;;;;;4189851;83;28495;-76
2022/04/26 14:43:09;;;;;;;16.42;10.38;;;;;;;;;;4211798;83;28513;-77
2022/04/26 14:49:10;;;;;;;14.18;9.80;;;;;;;;;;4203332;83;28545;-77
2022/04/26 14:55:11;;;;;;;13.75;8.98;;;;;;;;;;4228599;82;28543;-75
2022/04/26 15:01:12;;;;;;;16.65;9.68;;;;;;;;;;4243171;82;28555;-76
2022/04/26 15:07:13;;;;;;;17.60;10.48;;;;;;;;;;4252442;82;28485;-76
2022/04/26 15:19:34;;;;;;;16.17;9.50;;;;;;;;;;4247894;82;28514;-76
2022/04/26 15:25:36;;;;;;;13.70;8.25;;;;;;;;;;4251997;82;28599;-76
2022/04/26 15:31:38;;;;;;;15.72;8.73;;;;;;;;;;4253172;82;28535;-78
2022/04/26 15:37:39;;;;;;;14.93;8.88;;;;;;;;;;4249879;82;28518;-76
2022/04/26 15:43:40;;;;;;;15.80;8.60;;;;;;;;;;4249881;82;28541;-77
2022/04/26 15:49:41;;;;;;;12.78;7.83;;;;;;;;;;4246703;82;28545;-78
2022/04/26 15:55:42;;;;;;;16.40;8.50;;;;;;;;;;4241395;82;28527;-79
2022/04/26 16:01:43;;;;;;;15.18;7.87;;;;;;;;;;4251952;82;28542;-77
2022/04/26 16:07:44;;;;;;;14.90;8.35;;;;;;;;;;4242781;83;28542;-79
2022/04/26 16:26:24;;;;;;;11.70;6.30;;;;;;;;;;4279426;81;28540;-75
2022/04/26 16:32:25;;;;;;;12.13;6.60;;;;;;;;;;4216308;83;28484;-76
2022/04/26 16:38:26;;;;;;;11.08;7.00;;;;;;;;;;4204307;83;28536;-78
2022/04/26 16:44:27;;;;;;;12.80;7.10;;;;;;;;;;4280111;81;28940;-76
2022/04/26 16:50:29;;;;;;;12.28;7.05;;;;;;;;;;4287015;81;50687;-76
2022/04/26 16:56:32;;;;;;;10.30;6.53;;;;;;;;;;4278471;81;28552;-75
2022/04/26 17:02:35;;;;;;;12.78;6.80;;;;;;;;;;4278255;81;28525;-77
2022/04/26 17:08:36;;;;;;;10.75;6.45;;;;;;;;;;4283625;81;28465;-77
2022/04/26 17:14:39;;;;;;;12.03;7.08;;;;;;;;;;4290907;81;28584;-76
2022/04/26 17:20:40;;;;;;;12.88;7.17;;;;;;;;;;4276223;81;28547;-82
2022/04/26 17:26:42;;;;;;;11.97;6.70;;;;;;;;;;4293558;82;28542;-82
2022/04/26 17:32:43;;;;;;;11.53;6.67;;;;;;;;;;4279681;81;28542;-82
2022/04/26 17:38:44;;;;;;;10.70;5.97;;;;;;;;;;4292028;81;28510;-83
2022/04/26 17:44:46;;;;;;;13.70;7.90;;;;;;;;;;4294852;81;28597;-83
2022/04/26 17:50:48;;;;;;;12.37;6.87;;;;;;;;;;4284242;83;28522;-81
2022/04/26 17:56:52;;;;;;;12.40;6.83;;;;;;;;;;4296580;81;28598;-82
2022/04/26 18:02:54;;;;;;;11.93;7.03;;;;;;;;;;4282858;81;28549;-82
2022/04/26 18:08:55;;;;;;;13.48;7.55;;;;;;;;;;4295007;81;28514;-82
2022/04/26 18:14:58;;;;;;;14.87;7.83;;;;;;;;;;4297380;81;28479;-83
2022/04/26 18:21:00;;;;;;;15.15;8.15;;;;;;;;;;4287567;81;28607;-81
2022/04/26 18:27:01;;;;;;;12.40;8.23;;;;;;;;;;4289470;82;28506;-83
2022/04/26 18:33:02;;;;;;;13.43;7.90;;;;;;;;;;4268350;81;28478;-82
2022/04/26 18:39:05;;;;;;;14.50;8.20;;;;;;;;;;4297421;83;28609;-82
2022/04/26 18:45:07;;;;;;;15.58;8.58;;;;;;;;;;4296933;81;28576;-85
2022/04/26 18:51:12;;;;;;;14.23;8.45;;;;;;;;;;4303079;82;28515;-83
2022/04/26 18:57:14;;;;;;;18.25;9.33;;;;;;;;;;4282029;81;28536;-76
2022/04/26 19:03:15;;;;;;;11.95;6.35;;;;;;;;;;4293762;81;28559;-82
2022/04/26 19:09:16;;;;;;;11.88;7.30;;;;;;;;;;4297638;81;28514;-85
2022/04/26 19:15:17;;;;;;;11.43;6.95;;;;;;;;;;4285754;81;28537;-82
2022/04/26 19:21:18;;;;;;;13.28;7.33;;;;;;;;;;4276885;83;28518;-79
2022/04/26 19:27:21;;;;;;;10.70;6.40;;;;;;;;;;4284251;81;28538;-81
2022/04/26 19:33:23;;;;;;;11.97;6.53;;;;;;;;;;4292290;81;28524;-82
2022/04/26 19:39:23;;;;;;;11.22;6.35;;;;;;;;;;4236613;81;28540;-83
2022/04/26 19:45:24;;;;;;;13.40;7.00;;;;;;;;;;4282304;81;28530;-81
2022/04/26 19:51:25;;;;;;;14.13;7.35;;;;;;;;;;4289437;81;28459;-81
2022/04/26 19:57:27;;;;;;;13.88;7.00;;;;;;;;;;4296720;81;28531;-81
2022/04/26 20:03:27;;;;;;;15.90;7.58;;;;;;;;;;4298068;83;28605;-81
2022/04/26 20:09:28;;;;;;;14.15;7.30;;;;;;;;;;4309705;81;28561;-81
2022/04/26 20:15:30;;;;;;;14.65;7.28;;;;;;;;;;4303378;81;28524;-83
2022/04/26 20:21:33;;;;;;;10.95;6.47;;;;;;;;;;4290804;81;28522;-80
2022/04/26 20:33:58;;;;;;;14.93;8.13;;;;;;;;;;4198825;83;28511;-80
2022/04/26 20:39:58;;;;;;;15.58;8.20;;;;;;;;;;4301669;81;28493;-81
2022/04/26 20:46:01;;;;;;;17.98;8.93;;;;;;;;;;4272825;83;28518;-82
2022/04/26 20:52:02;;;;;;;15.43;8.53;;;;;;;;;;4225451;84;28598;-83
2022/04/26 20:58:05;;;;;;;16.50;7.83;;;;;;;;;;4293640;83;28600;-81
2022/04/26 21:04:08;;;;;;;13.83;7.60;;;;;;;;;;4293612;83;28463;-81
2022/04/26 21:10:09;;;;;;;15.13;8.18;;;;;;;;;;4256603;81;28498;-80
2022/04/26 21:16:11;;;;;;;15.43;8.28;;;;;;;;;;4281536;81;28516;-80
2022/04/26 21:22:11;;;;;;;14.68;8.38;;;;;;;;;;4277658;81;28510;-81
2022/04/26 21:28:12;;;;;;;18.65;10.25;;;;;;;;;;4295250;81;28478;-82
2022/04/26 21:34:13;;;;;;;22.25;10.60;;;;;;;;;;4289436;81;28542;-80
2022/04/26 21:40:16;;;;;;;24.67;11.93;;;;;;;;;;4280116;83;28528;-82
2022/04/26 21:46:17;;;;;;;28.00;14.58;;;;;;;;;;4294153;81;28506;-80
2022/04/26 21:52:17;;;;;;;28.00;14.35;;;;;;;;;;4287165;83;28556;-81
2022/04/26 21:58:19;;;;;;;21.73;10.55;;;;;;;;;;4170358;84;28595;-84
2022/04/26 22:04:20;;;;;;;28.50;14.55;;;;;;;;;;4227156;83;28550;-82
2022/04/26 22:10:21;;;;;;;22.07;11.33;;;;;;;;;;4243179;82;28556;-81
2022/04/26 22:16:22;;;;;;;23.52;13.30;;;;;;;;;;4221560;83;28485;-82
2022/04/26 22:22:23;;;;;;;20.92;10.85;;;;;;;;;;4227678;83;28522;-80
2022/04/26 22:28:24;;;;;;;23.47;12.15;;;;;;;;;;4203905;83;28610;-78
2022/04/26 22:34:25;;;;;;;30.23;15.25;;;;;;;;;;4206408;83;28549;-79
2022/04/26 22:40:26;;;;;;;25.62;13.13;;;;;;;;;;4210232;83;28505;-80
2022/04/26 22:46:27;;;;;;;29.25;14.83;;;;;;;;;;4206317;83;28575;-81
2022/04/26 22:52:28;;;;;;;27.20;13.25;;;;;;;;;;4213632;83;28517;-79
2022/04/26 22:58:28;;;;;;;24.45;13.13;;;;;;;;;;4170486;84;28517;-80
2022/04/26 23:04:29;;;;;;;26.42;12.65;;;;;;;;;;4154952;84;28981;-81
2022/04/26 23:10:30;;;;;;;23.47;12.63;;;;;;;;;;4153946;84;28478;-78
2022/04/26 23:16:31;;;;;;;23.47;12.00;;;;;;;;;;4154237;84;28541;-81
2022/04/26 23:22:32;;;;;;;24.15;12.10;;;;;;;;;;4155579;84;28555;-80
2022/04/26 23:28:35;;;;;;;29.32;14.95;;;;;;;;;;4149790;84;28566;-81
2022/04/26 23:40:57;;;;;;;31.02;15.32;;;;;;;;;;4151714;84;28541;-83
2022/04/26 23:46:58;;;;;;;25.85;12.23;;;;;;;;;;4156082;84;28533;-82
2022/04/26 23:53:00;;;;;;;29.25;14.60;;;;;;;;;;4145614;84;28500;-83
2022/04/26 23:59:01;;;;;;;23.47;13.22;;;;;;;;;;4208842;83;28562;-82
